Alta Loma, CA (91701)

11:07 AM PDT on July 26, 2017 (GMT -0700)
Alta Loma | | Change Station

Elev 1804 ft 34.14 °N, 117.63 °W | Updated 21 seconds ago

Clear
Clear
84.0 °F
Feels Like 87 °F
N
0.0
Wind Variable Wind from West
Gusts 0.0 mph

Today
High -- | Low -- °F
--% Chance of Precip.
Yesterday
High -- | Low -- °F
Precip. -- in
Pressure 29.96 in
Visibility 8.0 miles
Clouds Few 8000 ft
Few 11000 ft
Heat Index 87 °F
Dew Point 68 °F
Humidity 59%
Rainfall 0.00 in
Snow Depth Not available.
5:57 AM 7:56 PM
Waxing Crescent, 14% visible
METAR KONT 261753Z 27006KT 8SM FEW080 FEW110 28/16 A3000 RMK AO2 SLP143 T02780161 10278 20183 58008
Pressure 29.96 in
Visibility 8.0 miles
Clouds Few 8000 ft
Few 11000 ft
Heat Index 87 °F
Dew Point 68 °F
Humidity 59%
Rainfall 0.00 in
Snow Depth Not available.
5:57 AM 7:56 PM
Waxing Crescent, 14% visible
METAR KONT 261753Z 27006KT 8SM FEW080 FEW110 28/16 A3000 RMK AO2 SLP143 T02780161 10278 20183 58008

Get Severe Weather Alerts

Thanks for signing up!

Be on the lookout for a verification email in your inbox.

You'll start receiving the daily forecast at 6 AM.

×

10-Day Weather Forecast

Almanac

Astronomy

Jul. 26, 2017 Rise Set
Actual Time
Civil Twilight
Nautical Twilight
Astronomical Twilight
Moon
Length of Visible Light
Length of Day
Tomorrow will be .
, % of the Moon is Illuminated

Today's Extremes

State Highs State Lows

Community

WunderPhotos

Category 6

Welcome to Category 6. This is the collective home for Weather Underground's featured writeups by Dr. Jeff Masters (right), Bob Henson (left), Chris Burt, and other regular contributors.

Nearby

Air Quality

  Air Quality AQ Index Pollutant
Not available.

Snow Depth

Station Depth Elevation

Earthquake Activity

City Distance Mag. Time & Date
Minimum magnitude displayed is 2.5.

Coastal Water Temperatures

Place Temperature

Stations

Nearby Weather Stations

Station Location Temp. Windchill Dew Point Humidity Wind Precip. Elev Updated Type
                   

Watches & Warnings

There are currently no watches in effect.